sensor_id;sensor_type;location;lat;lon;timestamp;P1;durP1;ratioP1;P2;durP2;ratioP2
69280;SDS011;56392;51.082;17.080;2022-12-07T00:00:27;12.55;;;5.10;;
69280;SDS011;56392;51.082;17.080;2022-12-07T00:05:51;10.60;;;5.20;;
69280;SDS011;56392;51.082;17.080;2022-12-07T00:11:15;12.37;;;5.53;;
69280;SDS011;56392;51.082;17.080;2022-12-07T00:16:39;11.32;;;4.88;;
69280;SDS011;56392;51.082;17.080;2022-12-07T00:22:04;12.20;;;4.25;;
69280;SDS011;56392;51.082;17.080;2022-12-07T00:27:27;11.20;;;4.30;;
69280;SDS011;56392;51.082;17.080;2022-12-07T00:32:50;9.65;;;4.18;;
69280;SDS011;56392;51.082;17.080;2022-12-07T00:38:15;9.35;;;3.33;;
69280;SDS011;56392;51.082;17.080;2022-12-07T00:43:38;7.87;;;2.97;;
69280;SDS011;56392;51.082;17.080;2022-12-07T00:49:02;7.50;;;2.50;;
69280;SDS011;56392;51.082;17.080;2022-12-07T00:54:27;8.05;;;2.70;;
69280;SDS011;56392;51.082;17.080;2022-12-07T00:59:50;6.25;;;2.50;;
69280;SDS011;56392;51.082;17.080;2022-12-07T01:05:16;7.37;;;2.50;;
69280;SDS011;56392;51.082;17.080;2022-12-07T01:10:40;6.97;;;2.67;;
69280;SDS011;56392;51.082;17.080;2022-12-07T01:16:04;7.03;;;2.35;;
69280;SDS011;56392;51.082;17.080;2022-12-07T01:21:29;6.73;;;2.10;;
69280;SDS011;56392;51.082;17.080;2022-12-07T01:26:57;6.18;;;1.98;;
69280;SDS011;56392;51.082;17.080;2022-12-07T01:32:20;6.15;;;2.20;;
69280;SDS011;56392;51.082;17.080;2022-12-07T01:37:43;6.07;;;2.00;;
69280;SDS011;56392;51.082;17.080;2022-12-07T01:43:10;6.90;;;2.27;;
69280;SDS011;56392;51.082;17.080;2022-12-07T01:48:39;5.82;;;2.00;;
69280;SDS011;56392;51.082;17.080;2022-12-07T01:54:04;5.60;;;2.10;;
69280;SDS011;56392;51.082;17.080;2022-12-07T01:59:28;5.40;;;1.87;;
69280;SDS011;56392;51.082;17.080;2022-12-07T02:04:51;7.68;;;1.85;;
69280;SDS011;56392;51.082;17.080;2022-12-07T02:10:19;6.05;;;1.80;;
69280;SDS011;56392;51.082;17.080;2022-12-07T02:15:48;5.93;;;1.63;;
69280;SDS011;56392;51.082;17.080;2022-12-07T02:21:29;5.07;;;1.42;;
69280;SDS011;56392;51.082;17.080;2022-12-07T02:27:18;5.40;;;1.42;;
69280;SDS011;56392;51.082;17.080;2022-12-07T02:32:55;5.30;;;1.47;;
69280;SDS011;56392;51.082;17.080;2022-12-07T02:38:23;4.50;;;1.10;;
69280;SDS011;56392;51.082;17.080;2022-12-07T02:43:52;5.18;;;1.45;;
69280;SDS011;56392;51.082;17.080;2022-12-07T02:49:18;5.15;;;1.48;;
69280;SDS011;56392;51.082;17.080;2022-12-07T02:54:44;5.53;;;1.60;;
69280;SDS011;56392;51.082;17.080;2022-12-07T03:00:08;6.53;;;1.50;;
69280;SDS011;56392;51.082;17.080;2022-12-07T03:05:41;5.32;;;1.30;;
69280;SDS011;56392;51.082;17.080;2022-12-07T03:11:12;4.83;;;1.27;;
69280;SDS011;56392;51.082;17.080;2022-12-07T03:16:39;5.30;;;1.50;;
69280;SDS011;56392;51.082;17.080;2022-12-07T03:22:09;6.00;;;1.70;;
69280;SDS011;56392;51.082;17.080;2022-12-07T03:27:35;4.67;;;1.60;;
69280;SDS011;56392;51.082;17.080;2022-12-07T03:33:02;5.87;;;1.60;;
69280;SDS011;56392;51.082;17.080;2022-12-07T03:38:31;5.60;;;1.73;;
69280;SDS011;56392;51.082;17.080;2022-12-07T03:43:59;5.35;;;1.70;;
69280;SDS011;56392;51.082;17.080;2022-12-07T03:49:23;6.90;;;1.67;;
69280;SDS011;56392;51.082;17.080;2022-12-07T03:54:51;5.82;;;1.70;;
69280;SDS011;56392;51.082;17.080;2022-12-07T04:00:18;6.45;;;1.90;;
69280;SDS011;56392;51.082;17.080;2022-12-07T04:05:41;4.70;;;1.40;;
69280;SDS011;56392;51.082;17.080;2022-12-07T04:11:06;6.35;;;1.60;;
69280;SDS011;56392;51.082;17.080;2022-12-07T04:16:30;5.30;;;1.60;;
69280;SDS011;56392;51.082;17.080;2022-12-07T04:21:53;4.33;;;1.40;;
69280;SDS011;56392;51.082;17.080;2022-12-07T04:27:18;4.50;;;1.20;;
69280;SDS011;56392;51.082;17.080;2022-12-07T04:32:41;4.55;;;1.30;;
69280;SDS011;56392;51.082;17.080;2022-12-07T04:38:04;5.60;;;1.40;;
69280;SDS011;56392;51.082;17.080;2022-12-07T04:43:28;6.10;;;1.40;;
69280;SDS011;56392;51.082;17.080;2022-12-07T04:48:53;4.72;;;1.40;;
69280;SDS011;56392;51.082;17.080;2022-12-07T04:54:16;5.28;;;1.60;;
69280;SDS011;56392;51.082;17.080;2022-12-07T04:59:42;5.80;;;1.60;;
69280;SDS011;56392;51.082;17.080;2022-12-07T05:05:05;5.72;;;1.83;;
69280;SDS011;56392;51.082;17.080;2022-12-07T05:10:28;5.68;;;2.05;;
69280;SDS011;56392;51.082;17.080;2022-12-07T05:15:53;5.70;;;1.73;;
69280;SDS011;56392;51.082;17.080;2022-12-07T05:21:16;7.27;;;2.20;;
69280;SDS011;56392;51.082;17.080;2022-12-07T05:26:39;6.72;;;2.30;;
69280;SDS011;56392;51.082;17.080;2022-12-07T05:32:04;6.57;;;2.20;;
69280;SDS011;56392;51.082;17.080;2022-12-07T05:37:27;9.03;;;2.50;;
69280;SDS011;56392;51.082;17.080;2022-12-07T05:42:50;8.25;;;2.85;;
69280;SDS011;56392;51.082;17.080;2022-12-07T05:48:14;9.52;;;3.50;;
69280;SDS011;56392;51.082;17.080;2022-12-07T05:53:37;9.73;;;3.50;;
69280;SDS011;56392;51.082;17.080;2022-12-07T05:59:00;10.48;;;3.72;;
69280;SDS011;56392;51.082;17.080;2022-12-07T06:04:43;12.57;;;4.90;;
69280;SDS011;56392;51.082;17.080;2022-12-07T06:10:07;13.07;;;5.10;;
69280;SDS011;56392;51.082;17.080;2022-12-07T06:15:30;13.73;;;6.00;;
69280;SDS011;56392;51.082;17.080;2022-12-07T06:20:55;14.20;;;6.13;;
69280;SDS011;56392;51.082;17.080;2022-12-07T06:26:18;14.80;;;6.47;;
69280;SDS011;56392;51.082;17.080;2022-12-07T06:31:41;14.87;;;6.20;;
69280;SDS011;56392;51.082;17.080;2022-12-07T06:37:05;14.63;;;6.18;;
69280;SDS011;56392;51.082;17.080;2022-12-07T06:42:28;15.38;;;6.65;;
69280;SDS011;56392;51.082;17.080;2022-12-07T06:47:52;16.73;;;6.93;;
69280;SDS011;56392;51.082;17.080;2022-12-07T06:53:16;16.15;;;6.88;;
69280;SDS011;56392;51.082;17.080;2022-12-07T06:58:39;16.40;;;6.78;;
69280;SDS011;56392;51.082;17.080;2022-12-07T07:04:02;16.30;;;6.67;;
69280;SDS011;56392;51.082;17.080;2022-12-07T07:09:27;15.80;;;6.90;;
69280;SDS011;56392;51.082;17.080;2022-12-07T07:14:50;17.73;;;7.03;;
69280;SDS011;56392;51.082;17.080;2022-12-07T07:20:13;15.18;;;6.40;;
69280;SDS011;56392;51.082;17.080;2022-12-07T07:25:38;15.57;;;7.00;;
69280;SDS011;56392;51.082;17.080;2022-12-07T07:31:01;17.50;;;7.00;;
69280;SDS011;56392;51.082;17.080;2022-12-07T07:36:24;18.48;;;7.43;;
69280;SDS011;56392;51.082;17.080;2022-12-07T07:41:48;16.83;;;7.20;;
69280;SDS011;56392;51.082;17.080;2022-12-07T07:47:11;17.25;;;7.22;;
69280;SDS011;56392;51.082;17.080;2022-12-07T07:52:35;16.52;;;6.75;;
69280;SDS011;56392;51.082;17.080;2022-12-07T07:57:59;19.10;;;6.50;;
69280;SDS011;56392;51.082;17.080;2022-12-07T08:03:22;14.90;;;6.73;;
69280;SDS011;56392;51.082;17.080;2022-12-07T08:08:45;16.88;;;6.85;;
69280;SDS011;56392;51.082;17.080;2022-12-07T08:14:10;20.25;;;7.40;;
69280;SDS011;56392;51.082;17.080;2022-12-07T08:19:33;15.63;;;6.90;;
69280;SDS011;56392;51.082;17.080;2022-12-07T08:24:57;15.50;;;6.90;;
69280;SDS011;56392;51.082;17.080;2022-12-07T08:30:22;17.67;;;7.20;;
69280;SDS011;56392;51.082;17.080;2022-12-07T08:35:45;16.13;;;6.63;;
69280;SDS011;56392;51.082;17.080;2022-12-07T08:41:08;17.77;;;7.60;;
69280;SDS011;56392;51.082;17.080;2022-12-07T08:46:34;17.95;;;7.20;;
69280;SDS011;56392;51.082;17.080;2022-12-07T08:52:02;16.40;;;7.43;;
69280;SDS011;56392;51.082;17.080;2022-12-07T08:57:27;15.43;;;7.00;;
69280;SDS011;56392;51.082;17.080;2022-12-07T09:02:52;16.05;;;6.53;;
69280;SDS011;56392;51.082;17.080;2022-12-07T09:08:16;14.98;;;6.93;;
69280;SDS011;56392;51.082;17.080;2022-12-07T09:13:39;15.23;;;6.77;;
69280;SDS011;56392;51.082;17.080;2022-12-07T09:19:04;15.63;;;6.38;;
69280;SDS011;56392;51.082;17.080;2022-12-07T09:24:27;13.60;;;5.63;;
69280;SDS011;56392;51.082;17.080;2022-12-07T09:29:50;12.37;;;5.30;;
69280;SDS011;56392;51.082;17.080;2022-12-07T09:35:15;13.23;;;5.85;;
69280;SDS011;56392;51.082;17.080;2022-12-07T09:40:38;13.70;;;5.53;;
69280;SDS011;56392;51.082;17.080;2022-12-07T09:46:02;11.53;;;4.70;;
69280;SDS011;56392;51.082;17.080;2022-12-07T09:51:27;10.83;;;4.97;;
69280;SDS011;56392;51.082;17.080;2022-12-07T09:56:50;12.25;;;5.40;;
69280;SDS011;56392;51.082;17.080;2022-12-07T10:02:23;11.88;;;5.03;;
69280;SDS011;56392;51.082;17.080;2022-12-07T10:07:58;13.37;;;5.63;;
69280;SDS011;56392;51.082;17.080;2022-12-07T10:13:21;14.27;;;6.78;;
69280;SDS011;56392;51.082;17.080;2022-12-07T10:18:56;13.25;;;5.97;;
69280;SDS011;56392;51.082;17.080;2022-12-07T10:24:21;15.90;;;6.80;;
69280;SDS011;56392;51.082;17.080;2022-12-07T10:29:46;15.85;;;6.88;;
69280;SDS011;56392;51.082;17.080;2022-12-07T10:35:21;17.13;;;6.95;;
69280;SDS011;56392;51.082;17.080;2022-12-07T10:40:47;15.60;;;6.63;;
69280;SDS011;56392;51.082;17.080;2022-12-07T10:46:45;13.33;;;5.30;;
69280;SDS011;56392;51.082;17.080;2022-12-07T10:52:24;12.70;;;5.75;;
69280;SDS011;56392;51.082;17.080;2022-12-07T10:58:04;11.98;;;5.07;;
69280;SDS011;56392;51.082;17.080;2022-12-07T11:03:48;7.30;;;2.60;;
69280;SDS011;56392;51.082;17.080;2022-12-07T11:09:39;8.40;;;3.20;;
69280;SDS011;56392;51.082;17.080;2022-12-07T11:15:16;7.70;;;2.80;;
69280;SDS011;56392;51.082;17.080;2022-12-07T11:20:44;6.80;;;2.77;;
69280;SDS011;56392;51.082;17.080;2022-12-07T11:26:16;8.23;;;2.97;;
69280;SDS011;56392;51.082;17.080;2022-12-07T11:31:53;8.50;;;3.40;;
69280;SDS011;56392;51.082;17.080;2022-12-07T11:37:27;7.57;;;3.50;;
69280;SDS011;56392;51.082;17.080;2022-12-07T11:42:55;8.10;;;3.27;;
69280;SDS011;56392;51.082;17.080;2022-12-07T11:48:24;7.55;;;2.85;;
69280;SDS011;56392;51.082;17.080;2022-12-07T11:53:55;9.02;;;3.30;;
69280;SDS011;56392;51.082;17.080;2022-12-07T11:59:23;8.50;;;2.90;;
69280;SDS011;56392;51.082;17.080;2022-12-07T12:04:56;8.30;;;2.85;;
69280;SDS011;56392;51.082;17.080;2022-12-07T12:10:27;7.75;;;3.00;;
69280;SDS011;56392;51.082;17.080;2022-12-07T12:16:04;7.67;;;2.80;;
69280;SDS011;56392;51.082;17.080;2022-12-07T12:21:42;9.13;;;3.33;;
69280;SDS011;56392;51.082;17.080;2022-12-07T12:27:06;9.35;;;3.30;;
69280;SDS011;56392;51.082;17.080;2022-12-07T12:32:34;12.07;;;3.77;;
69280;SDS011;56392;51.082;17.080;2022-12-07T12:43:56;8.35;;;3.10;;
69280;SDS011;56392;51.082;17.080;2022-12-07T12:55:13;7.97;;;3.07;;
69280;SDS011;56392;51.082;17.080;2022-12-07T13:00:41;8.48;;;2.83;;
69280;SDS011;56392;51.082;17.080;2022-12-07T13:06:17;9.10;;;3.13;;
69280;SDS011;56392;51.082;17.080;2022-12-07T13:11:43;8.53;;;2.83;;
69280;SDS011;56392;51.082;17.080;2022-12-07T13:17:08;8.68;;;3.22;;
69280;SDS011;56392;51.082;17.080;2022-12-07T13:22:48;10.02;;;3.78;;
69280;SDS011;56392;51.082;17.080;2022-12-07T13:28:15;8.57;;;3.33;;
69280;SDS011;56392;51.082;17.080;2022-12-07T13:33:42;7.80;;;2.93;;
69280;SDS011;56392;51.082;17.080;2022-12-07T13:39:11;8.68;;;3.40;;
69280;SDS011;56392;51.082;17.080;2022-12-07T13:44:42;8.60;;;3.08;;
69280;SDS011;56392;51.082;17.080;2022-12-07T13:50:20;8.17;;;3.30;;
69280;SDS011;56392;51.082;17.080;2022-12-07T13:55:46;15.98;;;3.15;;
69280;SDS011;56392;51.082;17.080;2022-12-07T14:01:11;9.27;;;3.53;;
69280;SDS011;56392;51.082;17.080;2022-12-07T14:06:34;10.20;;;3.40;;
69280;SDS011;56392;51.082;17.080;2022-12-07T14:11:58;10.20;;;3.92;;
69280;SDS011;56392;51.082;17.080;2022-12-07T14:17:23;9.68;;;3.88;;
69280;SDS011;56392;51.082;17.080;2022-12-07T14:22:53;9.77;;;4.10;;
69280;SDS011;56392;51.082;17.080;2022-12-07T14:28:27;10.37;;;4.03;;
69280;SDS011;56392;51.082;17.080;2022-12-07T14:33:53;8.50;;;3.47;;
69280;SDS011;56392;51.082;17.080;2022-12-07T14:39:16;12.88;;;4.07;;
69280;SDS011;56392;51.082;17.080;2022-12-07T14:44:39;9.87;;;4.30;;
69280;SDS011;56392;51.082;17.080;2022-12-07T14:50:04;9.48;;;3.65;;
69280;SDS011;56392;51.082;17.080;2022-12-07T14:55:30;9.25;;;3.60;;
69280;SDS011;56392;51.082;17.080;2022-12-07T15:00:53;11.73;;;3.60;;
69280;SDS011;56392;51.082;17.080;2022-12-07T15:06:18;9.18;;;3.53;;
69280;SDS011;56392;51.082;17.080;2022-12-07T15:11:43;10.38;;;3.72;;
69280;SDS011;56392;51.082;17.080;2022-12-07T15:17:07;9.40;;;3.60;;
69280;SDS011;56392;51.082;17.080;2022-12-07T15:22:34;9.83;;;3.73;;
69280;SDS011;56392;51.082;17.080;2022-12-07T15:27:57;12.07;;;4.85;;
69280;SDS011;56392;51.082;17.080;2022-12-07T15:33:22;11.38;;;4.07;;
69280;SDS011;56392;51.082;17.080;2022-12-07T15:38:47;12.37;;;4.00;;
69280;SDS011;56392;51.082;17.080;2022-12-07T15:44:11;10.95;;;4.07;;
69280;SDS011;56392;51.082;17.080;2022-12-07T15:49:51;12.10;;;4.65;;
69280;SDS011;56392;51.082;17.080;2022-12-07T15:55:16;12.23;;;4.10;;
69280;SDS011;56392;51.082;17.080;2022-12-07T16:00:39;13.30;;;3.70;;
69280;SDS011;56392;51.082;17.080;2022-12-07T16:06:05;11.82;;;4.03;;
69280;SDS011;56392;51.082;17.080;2022-12-07T16:11:31;11.27;;;4.17;;
69280;SDS011;56392;51.082;17.080;2022-12-07T16:16:56;13.10;;;4.87;;
69280;SDS011;56392;51.082;17.080;2022-12-07T16:22:20;14.25;;;5.20;;
69280;SDS011;56392;51.082;17.080;2022-12-07T16:27:45;12.55;;;5.05;;
69280;SDS011;56392;51.082;17.080;2022-12-07T16:33:08;13.10;;;4.83;;
69280;SDS011;56392;51.082;17.080;2022-12-07T16:38:31;14.02;;;4.72;;
69280;SDS011;56392;51.082;17.080;2022-12-07T16:43:55;12.00;;;3.78;;
69280;SDS011;56392;51.082;17.080;2022-12-07T16:49:18;9.03;;;3.37;;
69280;SDS011;56392;51.082;17.080;2022-12-07T16:54:41;10.07;;;3.15;;
69280;SDS011;56392;51.082;17.080;2022-12-07T17:00:07;10.20;;;3.50;;
69280;SDS011;56392;51.082;17.080;2022-12-07T17:05:32;10.33;;;3.23;;
69280;SDS011;56392;51.082;17.080;2022-12-07T17:10:55;8.60;;;3.10;;
69280;SDS011;56392;51.082;17.080;2022-12-07T17:16:20;11.82;;;3.50;;
69280;SDS011;56392;51.082;17.080;2022-12-07T17:21:43;8.38;;;3.10;;
69280;SDS011;56392;51.082;17.080;2022-12-07T17:27:06;11.23;;;3.23;;
69280;SDS011;56392;51.082;17.080;2022-12-07T17:32:30;10.57;;;3.50;;
69280;SDS011;56392;51.082;17.080;2022-12-07T17:37:54;8.38;;;3.10;;
69280;SDS011;56392;51.082;17.080;2022-12-07T17:43:17;9.40;;;3.27;;
69280;SDS011;56392;51.082;17.080;2022-12-07T17:48:42;13.18;;;3.70;;
69280;SDS011;56392;51.082;17.080;2022-12-07T17:54:05;10.52;;;4.15;;
69280;SDS011;56392;51.082;17.080;2022-12-07T17:59:28;11.20;;;4.50;;
69280;SDS011;56392;51.082;17.080;2022-12-07T18:04:52;12.90;;;5.13;;
69280;SDS011;56392;51.082;17.080;2022-12-07T18:10:15;11.95;;;3.63;;
69280;SDS011;56392;51.082;17.080;2022-12-07T18:15:38;11.13;;;3.38;;
69280;SDS011;56392;51.082;17.080;2022-12-07T18:21:04;9.17;;;3.30;;
69280;SDS011;56392;51.082;17.080;2022-12-07T18:26:29;11.60;;;3.80;;
69280;SDS011;56392;51.082;17.080;2022-12-07T18:31:56;10.93;;;3.78;;
69280;SDS011;56392;51.082;17.080;2022-12-07T18:37:20;11.63;;;4.30;;
69280;SDS011;56392;51.082;17.080;2022-12-07T18:42:48;17.65;;;7.68;;
69280;SDS011;56392;51.082;17.080;2022-12-07T18:48:10;26.67;;;11.80;;
69280;SDS011;56392;51.082;17.080;2022-12-07T18:53:35;26.30;;;12.53;;
69280;SDS011;56392;51.082;17.080;2022-12-07T18:58:59;22.10;;;11.17;;
69280;SDS011;56392;51.082;17.080;2022-12-07T19:04:40;17.45;;;7.85;;
69280;SDS011;56392;51.082;17.080;2022-12-07T19:10:06;13.50;;;6.00;;
69280;SDS011;56392;51.082;17.080;2022-12-07T19:15:30;14.73;;;5.23;;
69280;SDS011;56392;51.082;17.080;2022-12-07T19:20:54;17.05;;;5.25;;
69280;SDS011;56392;51.082;17.080;2022-12-07T19:26:19;12.52;;;4.60;;
69280;SDS011;56392;51.082;17.080;2022-12-07T19:31:43;12.57;;;4.80;;
69280;SDS011;56392;51.082;17.080;2022-12-07T19:37:07;12.52;;;4.57;;
69280;SDS011;56392;51.082;17.080;2022-12-07T19:42:35;12.85;;;5.25;;
69280;SDS011;56392;51.082;17.080;2022-12-07T19:47:58;12.60;;;4.30;;
69280;SDS011;56392;51.082;17.080;2022-12-07T19:53:21;15.93;;;5.40;;
69280;SDS011;56392;51.082;17.080;2022-12-07T19:58:48;22.73;;;10.35;;
69280;SDS011;56392;51.082;17.080;2022-12-07T20:04:12;19.98;;;8.70;;
69280;SDS011;56392;51.082;17.080;2022-12-07T20:09:38;18.57;;;7.60;;
69280;SDS011;56392;51.082;17.080;2022-12-07T20:15:05;20.85;;;7.40;;
69280;SDS011;56392;51.082;17.080;2022-12-07T20:20:30;18.58;;;8.00;;
69280;SDS011;56392;51.082;17.080;2022-12-07T20:25:54;18.90;;;7.70;;
69280;SDS011;56392;51.082;17.080;2022-12-07T20:31:21;17.83;;;7.05;;
69280;SDS011;56392;51.082;17.080;2022-12-07T20:36:44;17.63;;;6.82;;
69280;SDS011;56392;51.082;17.080;2022-12-07T20:42:08;17.77;;;6.90;;
69280;SDS011;56392;51.082;17.080;2022-12-07T20:47:51;16.20;;;6.53;;
69280;SDS011;56392;51.082;17.080;2022-12-07T20:53:15;16.40;;;6.47;;
69280;SDS011;56392;51.082;17.080;2022-12-07T20:58:39;14.05;;;5.85;;
69280;SDS011;56392;51.082;17.080;2022-12-07T21:04:03;13.80;;;5.20;;
69280;SDS011;56392;51.082;17.080;2022-12-07T21:09:27;12.32;;;4.65;;
69280;SDS011;56392;51.082;17.080;2022-12-07T21:14:50;12.98;;;3.92;;
69280;SDS011;56392;51.082;17.080;2022-12-07T21:20:15;10.57;;;4.10;;
69280;SDS011;56392;51.082;17.080;2022-12-07T21:25:38;9.93;;;3.38;;
69280;SDS011;56392;51.082;17.080;2022-12-07T21:31:01;9.27;;;3.50;;
69280;SDS011;56392;51.082;17.080;2022-12-07T21:36:25;11.07;;;3.10;;
69280;SDS011;56392;51.082;17.080;2022-12-07T21:41:48;7.97;;;3.10;;
69280;SDS011;56392;51.082;17.080;2022-12-07T21:47:11;12.02;;;3.60;;
69280;SDS011;56392;51.082;17.080;2022-12-07T21:52:36;9.68;;;3.60;;
69280;SDS011;56392;51.082;17.080;2022-12-07T21:57:59;10.20;;;3.70;;
69280;SDS011;56392;51.082;17.080;2022-12-07T22:03:22;10.43;;;3.20;;
69280;SDS011;56392;51.082;17.080;2022-12-07T22:08:46;10.70;;;3.13;;
69280;SDS011;56392;51.082;17.080;2022-12-07T22:14:11;10.23;;;3.50;;
69280;SDS011;56392;51.082;17.080;2022-12-07T22:19:52;11.07;;;3.60;;
69280;SDS011;56392;51.082;17.080;2022-12-07T22:25:17;10.73;;;3.78;;
69280;SDS011;56392;51.082;17.080;2022-12-07T22:30:40;12.23;;;3.83;;
69280;SDS011;56392;51.082;17.080;2022-12-07T22:36:03;12.03;;;4.43;;
69280;SDS011;56392;51.082;17.080;2022-12-07T22:41:28;11.07;;;4.13;;
69280;SDS011;56392;51.082;17.080;2022-12-07T22:46:53;9.75;;;4.07;;
69280;SDS011;56392;51.082;17.080;2022-12-07T22:52:16;9.70;;;3.70;;
69280;SDS011;56392;51.082;17.080;2022-12-07T22:57:40;11.30;;;4.05;;
69280;SDS011;56392;51.082;17.080;2022-12-07T23:03:03;12.20;;;4.05;;
69280;SDS011;56392;51.082;17.080;2022-12-07T23:08:26;11.33;;;4.10;;
69280;SDS011;56392;51.082;17.080;2022-12-07T23:13:50;11.05;;;4.78;;
69280;SDS011;56392;51.082;17.080;2022-12-07T23:19:13;11.05;;;4.50;;
69280;SDS011;56392;51.082;17.080;2022-12-07T23:24:38;11.97;;;4.10;;
69280;SDS011;56392;51.082;17.080;2022-12-07T23:30:02;11.33;;;4.13;;
69280;SDS011;56392;51.082;17.080;2022-12-07T23:35:26;15.18;;;4.95;;
69280;SDS011;56392;51.082;17.080;2022-12-07T23:40:49;12.93;;;4.95;;
69280;SDS011;56392;51.082;17.080;2022-12-07T23:46:14;12.63;;;4.80;;
69280;SDS011;56392;51.082;17.080;2022-12-07T23:51:39;13.25;;;4.20;;
69280;SDS011;56392;51.082;17.080;2022-12-07T23:57:02;12.65;;;4.20;;
